sensor_id;sensor_type;location;lat;lon;timestamp;P1;durP1;ratioP1;P2;durP2;ratioP2
40793;SDS011;26502;51.886;15.604;2023-05-14T00:03:10;9.70;;;5.60;;
40793;SDS011;26502;51.886;15.604;2023-05-14T00:08:16;11.70;;;6.10;;
40793;SDS011;26502;51.886;15.604;2023-05-14T00:13:22;9.40;;;5.80;;
40793;SDS011;26502;51.886;15.604;2023-05-14T00:18:28;10.60;;;6.30;;
40793;SDS011;26502;51.886;15.604;2023-05-14T00:23:34;9.70;;;5.90;;
40793;SDS011;26502;51.886;15.604;2023-05-14T00:28:41;9.20;;;6.30;;
40793;SDS011;26502;51.886;15.604;2023-05-14T00:33:47;9.20;;;6.40;;
40793;SDS011;26502;51.886;15.604;2023-05-14T00:38:53;10.00;;;6.10;;
40793;SDS011;26502;51.886;15.604;2023-05-14T00:43:59;10.80;;;6.50;;
40793;SDS011;26502;51.886;15.604;2023-05-14T00:49:05;9.10;;;6.60;;
40793;SDS011;26502;51.886;15.604;2023-05-14T00:54:13;9.80;;;6.60;;
40793;SDS011;26502;51.886;15.604;2023-05-14T00:59:20;8.40;;;6.50;;
40793;SDS011;26502;51.886;15.604;2023-05-14T01:04:26;8.80;;;6.50;;
40793;SDS011;26502;51.886;15.604;2023-05-14T01:09:35;14.10;;;7.00;;
40793;SDS011;26502;51.886;15.604;2023-05-14T01:14:53;10.10;;;6.20;;
40793;SDS011;26502;51.886;15.604;2023-05-14T01:20:02;12.50;;;7.30;;
40793;SDS011;26502;51.886;15.604;2023-05-14T01:25:10;9.70;;;7.00;;
40793;SDS011;26502;51.886;15.604;2023-05-14T01:30:18;10.20;;;6.90;;
40793;SDS011;26502;51.886;15.604;2023-05-14T01:35:31;8.50;;;7.10;;
40793;SDS011;26502;51.886;15.604;2023-05-14T01:40:37;9.80;;;7.10;;
40793;SDS011;26502;51.886;15.604;2023-05-14T01:45:45;13.90;;;7.20;;
40793;SDS011;26502;51.886;15.604;2023-05-14T01:50:51;12.80;;;7.40;;
40793;SDS011;26502;51.886;15.604;2023-05-14T01:55:57;12.90;;;7.40;;
40793;SDS011;26502;51.886;15.604;2023-05-14T02:01:03;9.60;;;7.90;;
40793;SDS011;26502;51.886;15.604;2023-05-14T02:06:10;10.40;;;7.00;;
40793;SDS011;26502;51.886;15.604;2023-05-14T02:11:16;13.10;;;7.80;;
40793;SDS011;26502;51.886;15.604;2023-05-14T02:16:22;15.10;;;8.30;;
40793;SDS011;26502;51.886;15.604;2023-05-14T02:21:28;16.60;;;8.70;;
40793;SDS011;26502;51.886;15.604;2023-05-14T02:26:35;12.80;;;9.10;;
40793;SDS011;26502;51.886;15.604;2023-05-14T02:31:41;14.80;;;8.20;;
40793;SDS011;26502;51.886;15.604;2023-05-14T02:36:47;13.90;;;9.10;;
40793;SDS011;26502;51.886;15.604;2023-05-14T02:41:53;12.80;;;8.90;;
40793;SDS011;26502;51.886;15.604;2023-05-14T02:46:59;11.00;;;9.10;;
40793;SDS011;26502;51.886;15.604;2023-05-14T02:52:05;13.80;;;9.70;;
40793;SDS011;26502;51.886;15.604;2023-05-14T02:57:12;17.40;;;10.10;;
40793;SDS011;26502;51.886;15.604;2023-05-14T03:02:18;15.20;;;9.50;;
40793;SDS011;26502;51.886;15.604;2023-05-14T03:07:24;15.60;;;9.70;;
40793;SDS011;26502;51.886;15.604;2023-05-14T03:12:30;14.20;;;10.00;;
40793;SDS011;26502;51.886;15.604;2023-05-14T03:17:36;15.20;;;10.40;;
40793;SDS011;26502;51.886;15.604;2023-05-14T03:22:42;13.10;;;9.60;;
40793;SDS011;26502;51.886;15.604;2023-05-14T03:27:48;18.50;;;9.50;;
40793;SDS011;26502;51.886;15.604;2023-05-14T03:32:54;13.00;;;9.50;;
40793;SDS011;26502;51.886;15.604;2023-05-14T03:38:00;13.20;;;9.50;;
40793;SDS011;26502;51.886;15.604;2023-05-14T03:43:06;17.70;;;10.90;;
40793;SDS011;26502;51.886;15.604;2023-05-14T03:48:12;16.40;;;10.10;;
40793;SDS011;26502;51.886;15.604;2023-05-14T03:53:18;13.80;;;9.90;;
40793;SDS011;26502;51.886;15.604;2023-05-14T03:58:24;16.90;;;10.50;;
40793;SDS011;26502;51.886;15.604;2023-05-14T04:03:30;17.90;;;10.30;;
40793;SDS011;26502;51.886;15.604;2023-05-14T04:08:36;20.50;;;10.60;;
40793;SDS011;26502;51.886;15.604;2023-05-14T04:13:42;16.20;;;11.00;;
40793;SDS011;26502;51.886;15.604;2023-05-14T04:18:48;17.20;;;10.80;;
40793;SDS011;26502;51.886;15.604;2023-05-14T04:23:54;12.90;;;9.80;;
40793;SDS011;26502;51.886;15.604;2023-05-14T04:29:00;16.20;;;10.50;;
40793;SDS011;26502;51.886;15.604;2023-05-14T04:34:06;19.60;;;9.80;;
40793;SDS011;26502;51.886;15.604;2023-05-14T04:39:13;14.00;;;9.80;;
40793;SDS011;26502;51.886;15.604;2023-05-14T04:44:19;21.40;;;10.80;;
40793;SDS011;26502;51.886;15.604;2023-05-14T04:49:25;15.90;;;10.20;;
40793;SDS011;26502;51.886;15.604;2023-05-14T04:54:31;23.40;;;11.10;;
40793;SDS011;26502;51.886;15.604;2023-05-14T04:59:37;16.30;;;10.40;;
40793;SDS011;26502;51.886;15.604;2023-05-14T05:04:43;15.40;;;10.60;;
40793;SDS011;26502;51.886;15.604;2023-05-14T05:09:50;19.20;;;10.30;;
40793;SDS011;26502;51.886;15.604;2023-05-14T05:14:56;17.60;;;10.10;;
40793;SDS011;26502;51.886;15.604;2023-05-14T05:20:02;15.80;;;10.60;;
40793;SDS011;26502;51.886;15.604;2023-05-14T05:25:11;13.00;;;9.50;;
40793;SDS011;26502;51.886;15.604;2023-05-14T05:30:17;15.10;;;9.80;;
40793;SDS011;26502;51.886;15.604;2023-05-14T05:35:25;18.20;;;10.60;;
40793;SDS011;26502;51.886;15.604;2023-05-14T05:40:31;15.50;;;11.00;;
40793;SDS011;26502;51.886;15.604;2023-05-14T05:45:37;14.50;;;10.30;;
40793;SDS011;26502;51.886;15.604;2023-05-14T05:50:43;9.10;;;8.00;;
40793;SDS011;26502;51.886;15.604;2023-05-14T05:55:50;10.80;;;7.70;;
40793;SDS011;26502;51.886;15.604;2023-05-14T06:00:57;8.10;;;6.70;;
40793;SDS011;26502;51.886;15.604;2023-05-14T06:06:03;10.10;;;6.80;;
40793;SDS011;26502;51.886;15.604;2023-05-14T06:11:10;8.50;;;5.70;;
40793;SDS011;26502;51.886;15.604;2023-05-14T06:16:16;11.00;;;7.30;;
40793;SDS011;26502;51.886;15.604;2023-05-14T06:21:22;10.00;;;6.40;;
40793;SDS011;26502;51.886;15.604;2023-05-14T06:26:28;9.20;;;5.90;;
40793;SDS011;26502;51.886;15.604;2023-05-14T06:31:34;12.40;;;6.60;;
40793;SDS011;26502;51.886;15.604;2023-05-14T06:36:40;9.10;;;6.00;;
40793;SDS011;26502;51.886;15.604;2023-05-14T06:41:47;9.20;;;6.70;;
40793;SDS011;26502;51.886;15.604;2023-05-14T06:46:52;8.80;;;6.00;;
40793;SDS011;26502;51.886;15.604;2023-05-14T06:51:59;7.80;;;5.80;;
40793;SDS011;26502;51.886;15.604;2023-05-14T06:57:05;10.20;;;5.30;;
40793;SDS011;26502;51.886;15.604;2023-05-14T07:02:12;7.20;;;4.70;;
40793;SDS011;26502;51.886;15.604;2023-05-14T07:07:18;5.90;;;4.70;;
40793;SDS011;26502;51.886;15.604;2023-05-14T07:12:24;8.70;;;4.30;;
40793;SDS011;26502;51.886;15.604;2023-05-14T07:17:31;6.30;;;4.70;;
40793;SDS011;26502;51.886;15.604;2023-05-14T07:22:37;10.40;;;5.00;;
40793;SDS011;26502;51.886;15.604;2023-05-14T07:27:42;5.20;;;4.60;;
40793;SDS011;26502;51.886;15.604;2023-05-14T07:32:48;9.90;;;4.20;;
40793;SDS011;26502;51.886;15.604;2023-05-14T07:37:54;10.40;;;4.10;;
40793;SDS011;26502;51.886;15.604;2023-05-14T07:43:01;5.50;;;4.10;;
40793;SDS011;26502;51.886;15.604;2023-05-14T07:48:07;8.10;;;4.80;;
40793;SDS011;26502;51.886;15.604;2023-05-14T07:53:13;5.60;;;3.60;;
40793;SDS011;26502;51.886;15.604;2023-05-14T07:58:19;5.80;;;3.10;;
40793;SDS011;26502;51.886;15.604;2023-05-14T08:03:27;10.40;;;3.50;;
40793;SDS011;26502;51.886;15.604;2023-05-14T08:08:33;6.70;;;4.00;;
40793;SDS011;26502;51.886;15.604;2023-05-14T08:13:39;4.60;;;3.10;;
40793;SDS011;26502;51.886;15.604;2023-05-14T08:18:45;4.10;;;3.70;;
40793;SDS011;26502;51.886;15.604;2023-05-14T08:23:53;5.70;;;3.60;;
40793;SDS011;26502;51.886;15.604;2023-05-14T08:28:59;8.40;;;3.90;;
40793;SDS011;26502;51.886;15.604;2023-05-14T08:34:05;3.60;;;2.90;;
40793;SDS011;26502;51.886;15.604;2023-05-14T08:39:11;5.30;;;3.30;;
40793;SDS011;26502;51.886;15.604;2023-05-14T08:44:18;4.90;;;3.20;;
40793;SDS011;26502;51.886;15.604;2023-05-14T08:49:37;4.80;;;3.50;;
40793;SDS011;26502;51.886;15.604;2023-05-14T08:54:44;5.60;;;3.30;;
40793;SDS011;26502;51.886;15.604;2023-05-14T08:59:53;3.60;;;3.20;;
40793;SDS011;26502;51.886;15.604;2023-05-14T09:05:00;5.00;;;3.30;;
40793;SDS011;26502;51.886;15.604;2023-05-14T09:10:08;5.60;;;2.90;;
40793;SDS011;26502;51.886;15.604;2023-05-14T09:15:14;5.10;;;3.00;;
40793;SDS011;26502;51.886;15.604;2023-05-14T09:20:21;9.10;;;2.80;;
40793;SDS011;26502;51.886;15.604;2023-05-14T09:25:28;3.40;;;2.60;;
40793;SDS011;26502;51.886;15.604;2023-05-14T09:30:36;5.30;;;3.00;;
40793;SDS011;26502;51.886;15.604;2023-05-14T09:35:42;3.80;;;3.20;;
40793;SDS011;26502;51.886;15.604;2023-05-14T09:40:50;4.90;;;2.70;;
40793;SDS011;26502;51.886;15.604;2023-05-14T09:45:56;5.40;;;2.70;;
40793;SDS011;26502;51.886;15.604;2023-05-14T09:51:02;3.70;;;2.50;;
40793;SDS011;26502;51.886;15.604;2023-05-14T09:56:09;5.20;;;2.40;;
40793;SDS011;26502;51.886;15.604;2023-05-14T10:01:15;2.80;;;2.40;;
40793;SDS011;26502;51.886;15.604;2023-05-14T10:06:24;3.80;;;2.50;;
40793;SDS011;26502;51.886;15.604;2023-05-14T10:11:35;5.80;;;2.70;;
40793;SDS011;26502;51.886;15.604;2023-05-14T10:16:47;7.70;;;2.50;;
40793;SDS011;26502;51.886;15.604;2023-05-14T10:21:56;4.30;;;2.40;;
40793;SDS011;26502;51.886;15.604;2023-05-14T10:27:07;2.40;;;2.20;;
40793;SDS011;26502;51.886;15.604;2023-05-14T10:32:13;3.30;;;2.10;;
40793;SDS011;26502;51.886;15.604;2023-05-14T10:37:20;4.20;;;2.30;;
40793;SDS011;26502;51.886;15.604;2023-05-14T10:42:30;3.70;;;2.50;;
40793;SDS011;26502;51.886;15.604;2023-05-14T10:47:38;3.10;;;2.20;;
40793;SDS011;26502;51.886;15.604;2023-05-14T10:52:46;10.60;;;2.90;;
40793;SDS011;26502;51.886;15.604;2023-05-14T10:57:52;3.50;;;2.10;;
40793;SDS011;26502;51.886;15.604;2023-05-14T11:03:06;3.70;;;2.30;;
40793;SDS011;26502;51.886;15.604;2023-05-14T11:08:14;8.20;;;2.40;;
40793;SDS011;26502;51.886;15.604;2023-05-14T11:13:22;3.80;;;2.50;;
40793;SDS011;26502;51.886;15.604;2023-05-14T11:18:31;8.90;;;2.30;;
40793;SDS011;26502;51.886;15.604;2023-05-14T11:23:40;3.40;;;2.40;;
40793;SDS011;26502;51.886;15.604;2023-05-14T11:28:51;6.30;;;2.20;;
40793;SDS011;26502;51.886;15.604;2023-05-14T11:33:57;4.10;;;2.30;;
40793;SDS011;26502;51.886;15.604;2023-05-14T11:39:05;3.80;;;2.30;;
40793;SDS011;26502;51.886;15.604;2023-05-14T11:44:12;4.20;;;2.50;;
40793;SDS011;26502;51.886;15.604;2023-05-14T11:49:21;2.70;;;2.30;;
40793;SDS011;26502;51.886;15.604;2023-05-14T11:54:31;3.50;;;2.90;;
40793;SDS011;26502;51.886;15.604;2023-05-14T11:59:37;8.20;;;2.90;;
40793;SDS011;26502;51.886;15.604;2023-05-14T12:04:45;4.40;;;2.50;;
40793;SDS011;26502;51.886;15.604;2023-05-14T12:09:55;7.90;;;2.90;;
40793;SDS011;26502;51.886;15.604;2023-05-14T12:15:10;6.90;;;2.70;;
40793;SDS011;26502;51.886;15.604;2023-05-14T12:20:18;5.30;;;2.60;;
40793;SDS011;26502;51.886;15.604;2023-05-14T12:25:24;4.50;;;2.50;;
40793;SDS011;26502;51.886;15.604;2023-05-14T12:30:37;3.80;;;2.70;;
40793;SDS011;26502;51.886;15.604;2023-05-14T12:35:43;4.70;;;2.70;;
40793;SDS011;26502;51.886;15.604;2023-05-14T12:40:49;5.50;;;2.40;;
40793;SDS011;26502;51.886;15.604;2023-05-14T12:45:57;3.40;;;3.10;;
40793;SDS011;26502;51.886;15.604;2023-05-14T12:51:03;3.70;;;2.50;;
40793;SDS011;26502;51.886;15.604;2023-05-14T12:56:11;3.70;;;2.90;;
40793;SDS011;26502;51.886;15.604;2023-05-14T13:01:17;6.20;;;2.50;;
40793;SDS011;26502;51.886;15.604;2023-05-14T13:06:23;5.80;;;2.60;;
40793;SDS011;26502;51.886;15.604;2023-05-14T13:11:30;5.30;;;2.70;;
40793;SDS011;26502;51.886;15.604;2023-05-14T13:16:36;3.40;;;3.10;;
40793;SDS011;26502;51.886;15.604;2023-05-14T13:21:42;7.30;;;3.20;;
40793;SDS011;26502;51.886;15.604;2023-05-14T13:26:48;6.40;;;3.30;;
40793;SDS011;26502;51.886;15.604;2023-05-14T13:31:54;5.50;;;3.00;;
40793;SDS011;26502;51.886;15.604;2023-05-14T13:37:00;6.30;;;3.00;;
40793;SDS011;26502;51.886;15.604;2023-05-14T13:42:08;4.00;;;2.60;;
40793;SDS011;26502;51.886;15.604;2023-05-14T13:47:14;4.70;;;2.70;;
40793;SDS011;26502;51.886;15.604;2023-05-14T13:52:20;2.80;;;2.50;;
40793;SDS011;26502;51.886;15.604;2023-05-14T13:57:26;6.50;;;2.80;;
40793;SDS011;26502;51.886;15.604;2023-05-14T14:02:32;8.80;;;2.60;;
40793;SDS011;26502;51.886;15.604;2023-05-14T14:07:38;3.90;;;2.50;;
40793;SDS011;26502;51.886;15.604;2023-05-14T14:12:44;7.30;;;2.70;;
40793;SDS011;26502;51.886;15.604;2023-05-14T14:17:51;4.10;;;2.30;;
40793;SDS011;26502;51.886;15.604;2023-05-14T14:22:58;5.50;;;2.40;;
40793;SDS011;26502;51.886;15.604;2023-05-14T14:28:04;3.80;;;2.40;;
40793;SDS011;26502;51.886;15.604;2023-05-14T14:33:10;3.60;;;2.60;;
40793;SDS011;26502;51.886;15.604;2023-05-14T14:38:16;8.00;;;2.70;;
40793;SDS011;26502;51.886;15.604;2023-05-14T14:43:22;5.20;;;2.30;;
40793;SDS011;26502;51.886;15.604;2023-05-14T14:48:29;9.20;;;2.70;;
40793;SDS011;26502;51.886;15.604;2023-05-14T14:53:39;3.70;;;2.50;;
40793;SDS011;26502;51.886;15.604;2023-05-14T14:58:45;6.40;;;2.70;;
40793;SDS011;26502;51.886;15.604;2023-05-14T15:03:51;4.50;;;2.50;;
40793;SDS011;26502;51.886;15.604;2023-05-14T15:08:57;6.70;;;2.30;;
40793;SDS011;26502;51.886;15.604;2023-05-14T15:14:03;5.00;;;2.50;;
40793;SDS011;26502;51.886;15.604;2023-05-14T15:19:11;4.00;;;2.40;;
40793;SDS011;26502;51.886;15.604;2023-05-14T15:24:17;6.30;;;2.80;;
40793;SDS011;26502;51.886;15.604;2023-05-14T15:34:30;6.20;;;2.70;;
40793;SDS011;26502;51.886;15.604;2023-05-14T15:39:36;5.50;;;2.90;;
40793;SDS011;26502;51.886;15.604;2023-05-14T15:44:42;5.20;;;3.10;;
40793;SDS011;26502;51.886;15.604;2023-05-14T15:49:48;7.40;;;2.60;;
40793;SDS011;26502;51.886;15.604;2023-05-14T15:54:54;9.20;;;2.80;;
40793;SDS011;26502;51.886;15.604;2023-05-14T16:00:01;5.30;;;2.70;;
40793;SDS011;26502;51.886;15.604;2023-05-14T16:05:12;4.40;;;2.80;;
40793;SDS011;26502;51.886;15.604;2023-05-14T16:10:20;4.00;;;2.80;;
40793;SDS011;26502;51.886;15.604;2023-05-14T16:15:26;6.10;;;2.40;;
40793;SDS011;26502;51.886;15.604;2023-05-14T16:20:32;7.40;;;2.90;;
40793;SDS011;26502;51.886;15.604;2023-05-14T16:25:39;5.80;;;2.50;;
40793;SDS011;26502;51.886;15.604;2023-05-14T16:30:44;3.40;;;2.50;;
40793;SDS011;26502;51.886;15.604;2023-05-14T16:35:50;4.90;;;2.50;;
40793;SDS011;26502;51.886;15.604;2023-05-14T16:40:57;4.70;;;2.40;;
40793;SDS011;26502;51.886;15.604;2023-05-14T16:46:03;3.10;;;2.60;;
40793;SDS011;26502;51.886;15.604;2023-05-14T16:51:10;6.10;;;2.40;;
40793;SDS011;26502;51.886;15.604;2023-05-14T16:56:16;5.60;;;2.60;;
40793;SDS011;26502;51.886;15.604;2023-05-14T17:01:23;6.20;;;2.70;;
40793;SDS011;26502;51.886;15.604;2023-05-14T17:06:29;3.00;;;2.70;;
40793;SDS011;26502;51.886;15.604;2023-05-14T17:11:35;3.50;;;3.20;;
40793;SDS011;26502;51.886;15.604;2023-05-14T17:16:39;5.20;;;2.70;;
40793;SDS011;26502;51.886;15.604;2023-05-14T17:21:46;7.50;;;3.00;;
40793;SDS011;26502;51.886;15.604;2023-05-14T17:26:52;5.10;;;3.00;;
40793;SDS011;26502;51.886;15.604;2023-05-14T17:31:58;10.40;;;3.30;;
40793;SDS011;26502;51.886;15.604;2023-05-14T17:37:05;6.80;;;3.10;;
40793;SDS011;26502;51.886;15.604;2023-05-14T17:42:11;7.60;;;2.90;;
40793;SDS011;26502;51.886;15.604;2023-05-14T17:47:17;6.30;;;2.60;;
40793;SDS011;26502;51.886;15.604;2023-05-14T17:52:24;6.00;;;2.60;;
40793;SDS011;26502;51.886;15.604;2023-05-14T17:57:30;6.00;;;2.80;;
40793;SDS011;26502;51.886;15.604;2023-05-14T18:02:36;4.10;;;2.60;;
40793;SDS011;26502;51.886;15.604;2023-05-14T18:07:42;4.00;;;2.70;;
40793;SDS011;26502;51.886;15.604;2023-05-14T18:12:48;35.30;;;4.10;;
40793;SDS011;26502;51.886;15.604;2023-05-14T18:17:54;10.30;;;3.00;;
40793;SDS011;26502;51.886;15.604;2023-05-14T18:23:00;7.00;;;3.20;;
40793;SDS011;26502;51.886;15.604;2023-05-14T18:28:07;4.10;;;2.50;;
40793;SDS011;26502;51.886;15.604;2023-05-14T18:33:13;4.60;;;2.60;;
40793;SDS011;26502;51.886;15.604;2023-05-14T18:38:19;7.80;;;3.00;;
40793;SDS011;26502;51.886;15.604;2023-05-14T18:43:26;2.60;;;2.20;;
40793;SDS011;26502;51.886;15.604;2023-05-14T18:48:32;5.30;;;2.30;;
40793;SDS011;26502;51.886;15.604;2023-05-14T18:53:38;3.50;;;2.70;;
40793;SDS011;26502;51.886;15.604;2023-05-14T18:58:44;5.00;;;2.90;;
40793;SDS011;26502;51.886;15.604;2023-05-14T19:03:50;3.30;;;2.70;;
40793;SDS011;26502;51.886;15.604;2023-05-14T19:08:56;2.90;;;2.60;;
40793;SDS011;26502;51.886;15.604;2023-05-14T19:14:02;3.00;;;2.80;;
40793;SDS011;26502;51.886;15.604;2023-05-14T19:19:09;6.90;;;3.20;;
40793;SDS011;26502;51.886;15.604;2023-05-14T19:24:15;4.20;;;3.30;;
40793;SDS011;26502;51.886;15.604;2023-05-14T19:29:21;4.90;;;3.10;;
40793;SDS011;26502;51.886;15.604;2023-05-14T19:34:27;4.90;;;2.80;;
40793;SDS011;26502;51.886;15.604;2023-05-14T19:39:34;4.20;;;3.20;;
40793;SDS011;26502;51.886;15.604;2023-05-14T19:44:40;5.00;;;3.10;;
40793;SDS011;26502;51.886;15.604;2023-05-14T19:49:46;5.20;;;3.30;;
40793;SDS011;26502;51.886;15.604;2023-05-14T19:54:51;4.10;;;3.20;;
40793;SDS011;26502;51.886;15.604;2023-05-14T19:59:58;4.50;;;3.40;;
40793;SDS011;26502;51.886;15.604;2023-05-14T20:05:05;6.30;;;3.20;;
40793;SDS011;26502;51.886;15.604;2023-05-14T20:15:17;6.30;;;3.70;;
40793;SDS011;26502;51.886;15.604;2023-05-14T20:20:23;4.90;;;3.20;;
40793;SDS011;26502;51.886;15.604;2023-05-14T20:25:30;4.60;;;3.80;;
40793;SDS011;26502;51.886;15.604;2023-05-14T20:30:36;3.60;;;3.30;;
40793;SDS011;26502;51.886;15.604;2023-05-14T20:35:42;7.20;;;3.20;;
40793;SDS011;26502;51.886;15.604;2023-05-14T20:40:48;4.20;;;3.70;;
40793;SDS011;26502;51.886;15.604;2023-05-14T20:45:55;5.80;;;4.00;;
40793;SDS011;26502;51.886;15.604;2023-05-14T20:51:02;6.10;;;4.00;;
40793;SDS011;26502;51.886;15.604;2023-05-14T20:56:08;4.40;;;3.90;;
40793;SDS011;26502;51.886;15.604;2023-05-14T21:01:14;9.90;;;4.00;;
40793;SDS011;26502;51.886;15.604;2023-05-14T21:06:21;4.50;;;3.70;;
40793;SDS011;26502;51.886;15.604;2023-05-14T21:11:27;4.70;;;3.80;;
40793;SDS011;26502;51.886;15.604;2023-05-14T21:16:33;13.20;;;7.90;;
40793;SDS011;26502;51.886;15.604;2023-05-14T21:21:39;6.90;;;5.10;;
40793;SDS011;26502;51.886;15.604;2023-05-14T21:26:45;7.20;;;4.60;;
40793;SDS011;26502;51.886;15.604;2023-05-14T21:31:51;7.80;;;4.70;;
40793;SDS011;26502;51.886;15.604;2023-05-14T21:36:57;17.50;;;13.10;;
40793;SDS011;26502;51.886;15.604;2023-05-14T21:42:05;15.90;;;11.30;;
40793;SDS011;26502;51.886;15.604;2023-05-14T21:47:13;23.50;;;12.70;;
40793;SDS011;26502;51.886;15.604;2023-05-14T21:52:19;17.90;;;12.90;;
40793;SDS011;26502;51.886;15.604;2023-05-14T21:57:25;17.70;;;12.00;;
40793;SDS011;26502;51.886;15.604;2023-05-14T22:02:31;14.50;;;12.00;;
40793;SDS011;26502;51.886;15.604;2023-05-14T22:07:39;14.60;;;9.70;;
40793;SDS011;26502;51.886;15.604;2023-05-14T22:12:45;9.80;;;7.90;;
40793;SDS011;26502;51.886;15.604;2023-05-14T22:17:51;8.30;;;7.20;;
40793;SDS011;26502;51.886;15.604;2023-05-14T22:22:57;9.50;;;7.60;;
40793;SDS011;26502;51.886;15.604;2023-05-14T22:28:04;12.30;;;9.40;;
40793;SDS011;26502;51.886;15.604;2023-05-14T22:33:10;16.70;;;11.70;;
40793;SDS011;26502;51.886;15.604;2023-05-14T22:38:16;14.10;;;8.80;;
40793;SDS011;26502;51.886;15.604;2023-05-14T22:43:22;9.20;;;6.70;;
40793;SDS011;26502;51.886;15.604;2023-05-14T22:48:29;12.30;;;8.40;;
40793;SDS011;26502;51.886;15.604;2023-05-14T22:53:35;10.90;;;7.50;;
40793;SDS011;26502;51.886;15.604;2023-05-14T22:58:41;12.80;;;9.20;;
40793;SDS011;26502;51.886;15.604;2023-05-14T23:03:47;15.50;;;10.70;;
40793;SDS011;26502;51.886;15.604;2023-05-14T23:08:53;22.80;;;15.10;;
40793;SDS011;26502;51.886;15.604;2023-05-14T23:13:59;7.90;;;6.10;;
40793;SDS011;26502;51.886;15.604;2023-05-14T23:19:05;12.50;;;6.20;;
40793;SDS011;26502;51.886;15.604;2023-05-14T23:24:11;6.60;;;5.60;;
40793;SDS011;26502;51.886;15.604;2023-05-14T23:29:17;7.20;;;5.60;;
40793;SDS011;26502;51.886;15.604;2023-05-14T23:34:23;9.20;;;6.20;;
40793;SDS011;26502;51.886;15.604;2023-05-14T23:39:29;9.30;;;6.00;;
40793;SDS011;26502;51.886;15.604;2023-05-14T23:44:35;7.30;;;6.00;;
40793;SDS011;26502;51.886;15.604;2023-05-14T23:49:41;7.50;;;5.70;;
40793;SDS011;26502;51.886;15.604;2023-05-14T23:54:46;6.10;;;5.40;;
40793;SDS011;26502;51.886;15.604;2023-05-14T23:59:53;9.30;;;5.20;;
